Terminal Aerodrome Forecast
Issued by NWS

Home | Current Version | Previous Version | Text Only | Print | Product List | Glossary On
Versions: 1 2 3 4 5 6 7 8 9 10 11 12 13 14 15 16 17 18 19 20
000
FTUS46 KSEW 292328
TAFCLM
TAF
KCLM 292328Z 3000/3024 30018G30KT P6SM VCSH BKN050 OVC070
     FM300300 27013KT P6SM VCSH BKN035
     FM301400 25008KT P6SM VCSH OVC025
     FM301900 31010KT P6SM VCSH BKN045=

USA.gov is the U.S. government's official web portal to all federal, state and local government web resources and services.